createdAt,value
2017-03-10T00:00:47.853Z,22.62
2017-03-10T00:01:47.820Z,22.68
2017-03-10T00:02:47.822Z,22.68
2017-03-10T00:03:47.031Z,22.72
2017-03-10T00:04:47.879Z,22.75
2017-03-10T00:05:47.506Z,22.75
2017-03-10T00:06:47.849Z,22.68
2017-03-10T00:07:47.859Z,22.72
2017-03-10T00:08:47.847Z,22.72
2017-03-10T00:09:47.082Z,22.7
2017-03-10T00:10:47.537Z,22.65
2017-03-10T00:11:47.918Z,22.57
2017-03-10T00:12:47.921Z,22.55
2017-03-10T00:13:48.003Z,22.58
2017-03-10T00:14:47.886Z,22.62
2017-03-10T00:15:48.005Z,22.55
2017-03-10T00:16:47.502Z,22.57
2017-03-10T00:17:47.908Z,22.6
2017-03-10T00:18:48.015Z,22.61
2017-03-10T00:19:47.986Z,22.55
2017-03-10T00:20:47.530Z,22.64
2017-03-10T00:21:47.996Z,22.6
2017-03-10T00:22:48.008Z,22.52
2017-03-10T00:23:47.992Z,22.58
2017-03-10T00:24:47.954Z,22.52
2017-03-10T00:25:48.012Z,22.64
2017-03-10T00:26:48.009Z,22.58
2017-03-10T00:27:48.030Z,22.57
2017-03-10T00:28:48.041Z,22.54
2017-03-10T00:29:47.646Z,22.52
2017-03-10T00:30:47.601Z,22.55
2017-03-10T00:31:47.722Z,22.58
2017-03-10T00:32:47.651Z,22.57
2017-03-10T00:33:48.108Z,22.57
2017-03-10T00:34:48.009Z,22.6
2017-03-10T00:35:48.119Z,22.52
2017-03-10T00:36:48.135Z,22.51
2017-03-10T00:37:48.836Z,22.52
2017-03-10T00:38:48.091Z,22.51
2017-03-10T00:39:48.039Z,22.51
2017-03-10T00:40:48.153Z,22.6
2017-03-10T00:41:48.203Z,22.64
2017-03-10T00:42:48.113Z,22.51
2017-03-10T00:43:48.116Z,22.52
2017-03-10T00:44:48.119Z,22.55
2017-03-10T00:45:47.756Z,22.57
2017-03-10T00:46:48.192Z,22.58
2017-03-10T00:47:48.099Z,22.55
2017-03-10T00:48:48.259Z,22.58
2017-03-10T00:49:48.562Z,22.62
2017-03-10T00:50:47.776Z,22.57
2017-03-10T00:51:48.130Z,22.55
2017-03-10T00:52:48.173Z,22.54
2017-03-10T00:53:48.183Z,22.6
2017-03-10T00:54:48.189Z,22.61
2017-03-10T00:55:48.196Z,22.6
2017-03-10T00:56:47.748Z,22.68
2017-03-10T00:57:48.218Z,22.64
2017-03-10T00:58:48.262Z,22.65
2017-03-10T00:59:48.322Z,22.67
2017-03-10T01:00:47.878Z,22.6
2017-03-10T01:01:48.192Z,22.65
2017-03-10T01:02:48.182Z,22.68
2017-03-10T01:03:48.253Z,22.68
2017-03-10T01:04:48.300Z,22.68
2017-03-10T01:05:48.224Z,22.68
2017-03-10T01:06:48.226Z,22.65
2017-03-10T01:07:49.920Z,22.72
2017-03-10T01:08:48.254Z,22.68
2017-03-10T01:09:48.305Z,22.67
2017-03-10T01:10:48.290Z,22.62
2017-03-10T01:11:48.246Z,22.57
2017-03-10T01:12:48.299Z,22.58
2017-03-10T01:13:48.308Z,22.62
2017-03-10T01:14:48.330Z,22.61
2017-03-10T01:15:48.317Z,22.58
2017-03-10T01:16:48.378Z,22.57
2017-03-10T01:17:48.293Z,22.61
2017-03-10T01:18:49.044Z,22.64
2017-03-10T01:19:48.293Z,22.65
2017-03-10T01:20:48.350Z,22.64
2017-03-10T01:21:47.924Z,22.62
2017-03-10T01:22:48.361Z,22.62
2017-03-10T01:23:48.428Z,22.57
2017-03-10T01:24:47.945Z,22.6
2017-03-10T01:25:47.950Z,22.6
2017-03-10T01:26:48.342Z,22.57
2017-03-10T01:27:48.344Z,22.61
2017-03-10T01:28:48.401Z,22.47
2017-03-10T01:29:48.370Z,22.55
2017-03-10T01:30:48.415Z,22.61
2017-03-10T01:31:48.367Z,22.52
2017-03-10T01:32:48.381Z,22.61
2017-03-10T01:33:48.434Z,22.57
2017-03-10T01:34:47.991Z,22.6
2017-03-10T01:35:48.413Z,22.58
2017-03-10T01:36:48.405Z,22.51
2017-03-10T01:37:48.081Z,22.52
2017-03-10T01:38:48.516Z,22.57
2017-03-10T01:39:48.523Z,22.46
2017-03-10T01:40:48.100Z,22.57
2017-03-10T01:41:48.139Z,22.47
2017-03-10T01:42:48.107Z,22.51
2017-03-10T01:43:47.711Z,22.57
2017-03-10T01:44:48.501Z,22.55
2017-03-10T01:45:48.576Z,22.58
2017-03-10T01:46:48.523Z,22.61
2017-03-10T01:47:48.571Z,22.6
2017-03-10T01:48:48.530Z,22.61
2017-03-10T01:49:48.149Z,22.58
2017-03-10T01:50:48.552Z,22.57
2017-03-10T01:51:48.815Z,22.57
2017-03-10T01:52:48.523Z,22.57
2017-03-10T01:53:48.112Z,22.62
2017-03-10T01:54:48.627Z,22.65
2017-03-10T01:55:48.892Z,22.58
2017-03-10T01:56:48.631Z,22.51
2017-03-10T01:57:48.590Z,22.6
2017-03-10T01:58:48.612Z,22.6
2017-03-10T01:59:48.251Z,22.51
2017-03-10T02:00:48.608Z,22.64
2017-03-10T02:01:48.560Z,22.55
2017-03-10T02:02:48.629Z,22.61
2017-03-10T02:03:48.623Z,22.57
2017-03-10T02:04:48.596Z,22.58
2017-03-10T02:05:48.633Z,22.57
2017-03-10T02:06:48.208Z,22.57
2017-03-10T02:07:48.606Z,22.58
2017-03-10T02:08:48.271Z,22.67
2017-03-10T02:09:48.671Z,22.72
2017-03-10T02:10:48.281Z,22.76
2017-03-10T02:11:48.671Z,22.61
2017-03-10T02:12:48.957Z,22.64
2017-03-10T02:13:48.741Z,22.68
2017-03-10T02:14:47.856Z,22.72
2017-03-10T02:15:48.718Z,22.68
2017-03-10T02:16:48.720Z,22.73
2017-03-10T02:17:48.375Z,22.76
2017-03-10T02:18:48.677Z,22.65
2017-03-10T02:19:48.721Z,22.72
2017-03-10T02:20:48.731Z,22.72
2017-03-10T02:21:48.752Z,22.75
2017-03-10T02:22:48.761Z,22.55
2017-03-10T02:23:48.352Z,22.65
2017-03-10T02:24:48.764Z,22.68
2017-03-10T02:25:48.375Z,22.68
2017-03-10T02:26:49.065Z,22.57
2017-03-10T02:27:48.774Z,22.61
2017-03-10T02:28:48.730Z,22.54
2017-03-10T02:29:48.854Z,22.58
2017-03-10T02:30:48.868Z,22.58
2017-03-10T02:31:48.875Z,22.57
2017-03-10T02:32:48.757Z,22.57
2017-03-10T02:33:48.417Z,22.57
2017-03-10T02:34:48.870Z,22.55
2017-03-10T02:35:48.777Z,22.55
2017-03-10T02:36:48.842Z,22.58
2017-03-10T02:37:48.887Z,22.54
2017-03-10T02:38:48.400Z,22.49
2017-03-10T02:39:48.404Z,22.54
2017-03-10T02:40:48.856Z,22.6
2017-03-10T02:41:50.188Z,22.58
2017-03-10T02:42:48.477Z,22.55
2017-03-10T02:43:48.922Z,22.55
2017-03-10T02:44:48.837Z,22.57
2017-03-10T02:45:48.488Z,22.57
2017-03-10T02:46:48.962Z,22.52
2017-03-10T02:47:48.855Z,22.51
2017-03-10T02:48:48.865Z,22.6
2017-03-10T02:49:48.516Z,22.54
2017-03-10T02:50:48.875Z,22.55
2017-03-10T02:51:48.947Z,22.6
2017-03-10T02:52:48.534Z,22.52
2017-03-10T02:53:48.992Z,22.57
2017-03-10T02:54:49.245Z,22.51
2017-03-10T02:55:48.998Z,22.6
2017-03-10T02:56:49.034Z,22.52
2017-03-10T02:57:48.571Z,22.51
2017-03-10T02:58:49.046Z,22.46
2017-03-10T02:59:48.934Z,22.46
2017-03-10T03:00:49.031Z,22.51
2017-03-10T03:01:48.612Z,22.55
2017-03-10T03:02:48.991Z,22.54
2017-03-10T03:03:49.009Z,22.62
2017-03-10T03:04:48.616Z,22.61
2017-03-10T03:05:49.062Z,22.61
2017-03-10T03:06:48.968Z,22.58
2017-03-10T03:07:49.043Z,22.58
2017-03-10T03:08:49.839Z,22.57
2017-03-10T03:09:48.695Z,22.6
2017-03-10T03:10:49.102Z,22.58
2017-03-10T03:11:48.681Z,22.58
2017-03-10T03:12:49.020Z,22.64
2017-03-10T03:13:49.183Z,22.6
2017-03-10T03:14:49.085Z,22.55
2017-03-10T03:15:49.031Z,22.57
2017-03-10T03:16:49.041Z,22.6
2017-03-10T03:17:49.141Z,22.57
2017-03-10T03:18:49.145Z,22.64
2017-03-10T03:19:49.068Z,22.61
2017-03-10T03:20:49.232Z,22.67
2017-03-10T03:21:49.124Z,22.7
2017-03-10T03:22:49.171Z,22.62
2017-03-10T03:23:49.085Z,22.72
2017-03-10T03:24:49.131Z,22.68
2017-03-10T03:25:49.136Z,22.67
2017-03-10T03:26:49.162Z,22.65
2017-03-10T03:27:49.120Z,22.65
2017-03-10T03:28:49.213Z,22.76
2017-03-10T03:29:48.796Z,22.73
2017-03-10T03:30:49.120Z,22.72
2017-03-10T03:31:49.222Z,22.64
2017-03-10T03:32:49.241Z,22.7
2017-03-10T03:33:48.754Z,22.65
2017-03-10T03:34:48.812Z,22.68
2017-03-10T03:35:49.166Z,22.65
2017-03-10T03:36:49.275Z,22.57
2017-03-10T03:37:49.220Z,22.58
2017-03-10T03:38:49.221Z,22.54
2017-03-10T03:39:49.224Z,22.51
2017-03-10T03:40:49.183Z,22.58
2017-03-10T03:41:48.797Z,22.55
2017-03-10T03:42:48.849Z,22.6
2017-03-10T03:44:03.779Z,22.51
2017-03-10T03:44:49.306Z,22.54
2017-03-10T03:45:48.441Z,22.46
2017-03-10T03:46:49.270Z,22.61
2017-03-10T03:47:49.276Z,22.57
2017-03-10T03:48:49.284Z,22.57
2017-03-10T03:49:49.586Z,22.64
2017-03-10T03:50:49.263Z,22.57
2017-03-10T03:51:49.251Z,22.57
2017-03-10T03:52:49.362Z,22.62
2017-03-10T03:53:49.315Z,22.58
2017-03-10T03:54:48.985Z,22.52
2017-03-10T03:55:49.347Z,22.58
2017-03-10T03:56:49.382Z,22.54
2017-03-10T03:57:49.294Z,22.58
2017-03-10T03:58:49.309Z,22.61
2017-03-10T03:59:49.303Z,22.61
2017-03-10T04:00:49.020Z,22.54
2017-03-10T04:01:48.965Z,22.58
2017-03-10T04:02:49.424Z,22.64
2017-03-10T04:03:49.382Z,22.55
2017-03-10T04:04:49.479Z,22.64
2017-03-10T04:05:49.395Z,22.61
2017-03-10T04:06:49.408Z,22.73
2017-03-10T04:07:48.960Z,22.7
2017-03-10T04:08:49.366Z,22.6
2017-03-10T04:09:49.423Z,22.68
2017-03-10T04:10:49.367Z,22.62
2017-03-10T04:11:49.377Z,22.6
2017-03-10T04:12:49.398Z,22.61
2017-03-10T04:14:03.867Z,22.61
2017-03-10T04:14:49.397Z,22.61
2017-03-10T04:15:49.809Z,22.65
2017-03-10T04:16:49.171Z,22.6
2017-03-10T04:17:49.423Z,22.72
2017-03-10T04:18:50.022Z,22.64
2017-03-10T04:19:49.030Z,22.72
2017-03-10T04:20:49.550Z,22.72
2017-03-10T04:21:49.486Z,22.67
2017-03-10T04:22:49.448Z,22.75
2017-03-10T04:23:49.104Z,22.73
2017-03-10T04:24:49.456Z,22.64
2017-03-10T04:25:49.117Z,22.72
2017-03-10T04:26:49.526Z,22.76
2017-03-10T04:27:49.478Z,22.73
2017-03-10T04:28:49.553Z,22.7
2017-03-10T04:29:49.561Z,22.7
2017-03-10T04:30:49.096Z,22.76
2017-03-10T04:31:49.157Z,22.79
2017-03-10T04:32:49.570Z,22.79
2017-03-10T04:33:49.228Z,22.8
2017-03-10T04:34:49.576Z,22.8
2017-03-10T04:35:49.250Z,22.83
2017-03-10T04:36:49.538Z,22.83
2017-03-10T04:37:49.592Z,22.8
2017-03-10T04:38:49.545Z,22.83
2017-03-10T04:39:49.720Z,22.9
2017-03-10T04:40:49.191Z,22.76
2017-03-10T04:41:49.569Z,22.85
2017-03-10T04:42:49.224Z,22.83
2017-03-10T04:44:04.116Z,22.82
2017-03-10T04:44:49.635Z,22.77
2017-03-10T04:45:49.657Z,22.79
2017-03-10T04:46:49.702Z,22.82
2017-03-10T04:47:49.259Z,22.65
2017-03-10T04:48:49.608Z,22.64
2017-03-10T04:49:49.627Z,22.72
2017-03-10T04:50:49.633Z,22.72
2017-03-10T04:51:49.681Z,22.7
2017-03-10T04:52:49.740Z,22.68
2017-03-10T04:53:49.248Z,22.7
2017-03-10T04:54:49.251Z,22.76
2017-03-10T04:55:49.958Z,22.76
2017-03-10T04:56:49.833Z,22.7
2017-03-10T04:57:49.665Z,22.67
2017-03-10T04:58:49.728Z,22.73
2017-03-10T04:59:49.281Z,22.82
2017-03-10T05:00:49.799Z,22.8
2017-03-10T05:01:49.742Z,22.82
2017-03-10T05:02:49.749Z,22.82
2017-03-10T05:03:49.813Z,22.77
2017-03-10T05:04:48.931Z,22.82
2017-03-10T05:05:49.781Z,22.79
2017-03-10T05:06:49.777Z,22.75
2017-03-10T05:07:50.842Z,22.79
2017-03-10T05:08:49.787Z,22.73
2017-03-10T05:09:49.788Z,22.73
2017-03-10T05:10:49.744Z,22.77
2017-03-10T05:11:49.766Z,22.8
2017-03-10T05:12:49.826Z,22.82
2017-03-10T05:13:49.422Z,22.72
2017-03-10T05:14:49.779Z,22.76
2017-03-10T05:15:49.891Z,22.72
2017-03-10T05:16:49.874Z,22.7
2017-03-10T05:17:49.451Z,22.67
2017-03-10T05:18:49.802Z,22.67
2017-03-10T05:19:49.854Z,22.68
2017-03-10T05:20:49.925Z,22.68
2017-03-10T05:21:49.925Z,22.72
2017-03-10T05:22:50.030Z,22.75
2017-03-10T05:23:49.882Z,22.7
2017-03-10T05:24:49.458Z,22.65
2017-03-10T05:25:49.853Z,22.68
2017-03-10T05:26:49.847Z,22.65
2017-03-10T05:27:49.977Z,22.72
2017-03-10T05:28:49.864Z,22.73
2017-03-10T05:29:49.534Z,22.62
2017-03-10T05:30:49.872Z,22.67
2017-03-10T05:31:49.487Z,22.76
2017-03-10T05:32:50.454Z,22.73
2017-03-10T05:33:49.995Z,22.68
2017-03-10T05:34:49.959Z,22.67
2017-03-10T05:35:49.956Z,22.76
2017-03-10T05:36:49.578Z,22.76
2017-03-10T05:37:49.521Z,22.79
2017-03-10T05:38:49.978Z,22.77
2017-03-10T05:39:49.993Z,22.73
2017-03-10T05:40:50.036Z,22.72
2017-03-10T05:41:50.007Z,22.73
2017-03-10T05:42:49.950Z,22.73
2017-03-10T05:43:50.009Z,22.67
2017-03-10T05:44:49.618Z,22.67
2017-03-10T05:45:50.032Z,22.72
2017-03-10T05:46:49.977Z,22.68
2017-03-10T05:47:50.083Z,22.72
2017-03-10T05:48:49.989Z,22.72
2017-03-10T05:49:50.058Z,22.76
2017-03-10T05:50:50.011Z,22.73
2017-03-10T05:51:50.058Z,22.73
2017-03-10T05:52:50.137Z,22.7
2017-03-10T05:53:50.019Z,22.72
2017-03-10T05:54:50.530Z,22.72
2017-03-10T05:55:50.083Z,22.72
2017-03-10T05:56:50.089Z,22.65
2017-03-10T05:57:49.653Z,22.7
2017-03-10T05:58:50.391Z,22.7
2017-03-10T05:59:50.125Z,22.68
2017-03-10T06:00:50.142Z,22.68
2017-03-10T06:01:49.723Z,22.68
2017-03-10T06:02:50.146Z,22.64
2017-03-10T06:03:50.083Z,22.67
2017-03-10T06:04:50.091Z,22.65
2017-03-10T06:05:50.194Z,22.67
2017-03-10T06:06:50.163Z,22.67
2017-03-10T06:07:50.126Z,22.72
2017-03-10T06:08:50.172Z,22.68
2017-03-10T06:09:50.172Z,22.72
2017-03-10T06:10:49.782Z,22.65
2017-03-10T06:11:50.187Z,22.65
2017-03-10T06:12:50.202Z,22.8
2017-03-10T06:13:50.196Z,22.77
2017-03-10T06:14:49.805Z,22.75
2017-03-10T06:15:50.208Z,22.75
2017-03-10T06:16:49.837Z,22.65
2017-03-10T06:17:49.928Z,22.64
2017-03-10T06:18:50.288Z,22.65
2017-03-10T06:19:49.851Z,22.73
2017-03-10T06:20:50.191Z,22.62
2017-03-10T06:21:50.207Z,22.73
2017-03-10T06:22:50.316Z,22.75
2017-03-10T06:23:50.226Z,22.72
2017-03-10T06:24:49.818Z,22.67
2017-03-10T06:25:50.226Z,22.72
2017-03-10T06:26:50.285Z,22.72
2017-03-10T06:27:49.890Z,22.7
2017-03-10T06:28:49.909Z,22.72
2017-03-10T06:29:49.851Z,22.73
2017-03-10T06:30:50.404Z,22.7
2017-03-10T06:31:50.318Z,22.79
2017-03-10T06:32:50.331Z,22.76
2017-03-10T06:33:50.275Z,22.83
2017-03-10T06:34:50.286Z,22.9
2017-03-10T06:35:50.351Z,22.88
2017-03-10T06:36:50.396Z,22.92
2017-03-10T06:37:50.304Z,22.85
2017-03-10T06:38:50.456Z,22.9
2017-03-10T06:39:50.431Z,22.86
2017-03-10T06:40:50.366Z,22.9
2017-03-10T06:41:50.384Z,22.91
2017-03-10T06:42:50.335Z,22.92
2017-03-10T06:43:50.489Z,22.9
2017-03-10T06:44:50.394Z,22.86
2017-03-10T06:45:50.401Z,22.88
2017-03-10T06:46:50.405Z,22.83
2017-03-10T06:47:50.718Z,22.8
2017-03-10T06:48:50.472Z,22.88
2017-03-10T06:49:50.402Z,22.92
2017-03-10T06:50:49.988Z,22.92
2017-03-10T06:51:50.442Z,22.9
2017-03-10T06:52:50.005Z,22.8
2017-03-10T06:53:50.064Z,22.97
2017-03-10T06:54:50.056Z,22.92
2017-03-10T06:55:50.023Z,22.9
2017-03-10T06:56:50.547Z,22.9
2017-03-10T06:57:50.423Z,22.88
2017-03-10T06:58:50.480Z,23
2017-03-10T06:59:50.537Z,22.9
2017-03-10T07:00:50.467Z,22.94
2017-03-10T07:01:50.565Z,22.95
2017-03-10T07:02:50.520Z,22.97
2017-03-10T07:03:50.116Z,22.91
2017-03-10T07:04:50.569Z,22.92
2017-03-10T07:05:50.548Z,22.86
2017-03-10T07:06:50.540Z,22.83
2017-03-10T07:07:50.539Z,22.86
2017-03-10T07:08:50.515Z,22.95
2017-03-10T07:09:50.658Z,22.95
2017-03-10T07:10:50.615Z,22.95
2017-03-10T07:11:50.561Z,22.97
2017-03-10T07:12:50.620Z,23
2017-03-10T07:14:00.802Z,23
2017-03-10T07:14:50.635Z,23.13
2017-03-10T07:15:50.545Z,23.19
2017-03-10T07:16:50.558Z,23.16
2017-03-10T07:17:50.569Z,23.2
2017-03-10T07:18:50.574Z,23.19
2017-03-10T07:19:50.634Z,23.16
2017-03-10T07:20:50.620Z,23.13
2017-03-10T07:21:50.683Z,23.13
2017-03-10T07:22:50.586Z,23.17
2017-03-10T07:23:50.645Z,23.1
2017-03-10T07:24:50.215Z,23.2
2017-03-10T07:25:50.209Z,23.32
2017-03-10T07:26:50.229Z,23.42
2017-03-10T07:27:50.371Z,23.57
2017-03-10T07:28:50.677Z,23.61
2017-03-10T07:29:50.649Z,23.69
2017-03-10T07:30:50.694Z,23.88
2017-03-10T07:31:50.642Z,24.05
2017-03-10T07:32:50.663Z,24.06
2017-03-10T07:33:50.311Z,24.28
2017-03-10T07:34:50.772Z,24.57
2017-03-10T07:35:50.276Z,24.73
2017-03-10T07:36:50.278Z,24.83
2017-03-10T07:37:50.696Z,24.95
2017-03-10T07:38:50.356Z,25.03
2017-03-10T07:39:50.319Z,25.09
2017-03-10T07:40:50.769Z,25.18
2017-03-10T07:41:50.812Z,25.23
2017-03-10T07:42:50.784Z,25.39
2017-03-10T07:43:50.720Z,25.55
2017-03-10T07:44:50.796Z,25.62
2017-03-10T07:45:50.394Z,25.6
2017-03-10T07:46:50.799Z,25.73
2017-03-10T07:47:50.765Z,25.76
2017-03-10T07:48:50.407Z,25.87
2017-03-10T07:49:50.813Z,25.88
2017-03-10T07:50:50.387Z,25.76
2017-03-10T07:51:51.126Z,25.85
2017-03-10T07:52:50.843Z,25.91
2017-03-10T07:53:51.803Z,25.92
2017-03-10T07:54:50.948Z,25.82
2017-03-10T07:55:50.815Z,25.88
2017-03-10T07:56:50.825Z,25.82
2017-03-10T07:57:51.115Z,25.76
2017-03-10T07:58:50.937Z,25.85
2017-03-10T07:59:51.052Z,25.98
2017-03-10T08:00:50.893Z,25.99
2017-03-10T08:01:50.904Z,25.9
2017-03-10T08:02:50.862Z,25.99
2017-03-10T08:03:50.936Z,25.99
2017-03-10T08:04:50.867Z,25.91
2017-03-10T08:05:50.932Z,26.01
2017-03-10T08:06:50.940Z,26.21
2017-03-10T08:07:50.964Z,26.29
2017-03-10T08:08:50.907Z,26.32
2017-03-10T08:09:50.976Z,26.3
2017-03-10T08:10:51.060Z,26.33
2017-03-10T08:11:50.993Z,26.21
2017-03-10T08:12:50.530Z,26.2
2017-03-10T08:13:50.658Z,26.06
2017-03-10T08:14:51.048Z,26.2
2017-03-10T08:15:50.998Z,26.13
2017-03-10T08:16:51.053Z,26.1
2017-03-10T08:17:51.018Z,26.02
2017-03-10T08:18:50.690Z,25.88
2017-03-10T08:19:51.043Z,25.9
2017-03-10T08:20:51.075Z,25.95
2017-03-10T08:21:51.042Z,25.97
2017-03-10T08:22:51.098Z,25.77
2017-03-10T08:23:51.053Z,25.76
2017-03-10T08:24:51.063Z,25.85
2017-03-10T08:25:50.679Z,25.72
2017-03-10T08:26:51.080Z,25.73
2017-03-10T08:27:51.185Z,25.5
2017-03-10T08:28:51.141Z,25.5
2017-03-10T08:29:51.060Z,25.46
2017-03-10T08:30:51.105Z,25.46
2017-03-10T08:31:51.116Z,25.46
2017-03-10T08:32:51.125Z,25.5
2017-03-10T08:33:51.201Z,25.47
2017-03-10T08:34:50.693Z,25.4
2017-03-10T08:35:51.156Z,25.39
2017-03-10T08:36:50.755Z,25.38
2017-03-10T08:37:50.712Z,25.38
2017-03-10T08:38:51.176Z,25.72
2017-03-10T08:39:50.801Z,26.52
2017-03-10T08:40:51.180Z,27.93
2017-03-10T08:41:51.192Z,28.4
2017-03-10T08:42:50.816Z,29.28
2017-03-10T08:43:51.256Z,30.2
2017-03-10T08:44:51.191Z,30.69
2017-03-10T08:45:51.179Z,30.69
2017-03-10T08:46:50.847Z,30.88
2017-03-10T08:47:51.257Z,31.09
2017-03-10T08:48:51.334Z,31.2
2017-03-10T08:49:51.276Z,31.5
2017-03-10T08:50:50.933Z,31.29
2017-03-10T08:51:50.843Z,31.35
2017-03-10T08:52:50.929Z,31.06
2017-03-10T08:53:50.941Z,29.58
2017-03-10T08:54:51.377Z,28.96
2017-03-10T08:55:51.337Z,28.18
2017-03-10T08:56:51.356Z,27.62
2017-03-10T08:57:51.409Z,29.52
2017-03-10T08:58:50.988Z,30.6
2017-03-10T08:59:51.339Z,30.65
2017-03-10T09:00:51.470Z,30.15
2017-03-10T09:01:51.005Z,30.75
2017-03-10T09:02:51.373Z,29.61
2017-03-10T09:03:51.137Z,28.17
2017-03-10T09:04:50.997Z,28.56
2017-03-10T09:05:51.393Z,29.97
2017-03-10T09:06:51.407Z,30.55
2017-03-10T09:07:51.433Z,31.04
2017-03-10T09:08:51.523Z,31.07
2017-03-10T09:09:51.446Z,31.16
2017-03-10T09:10:51.506Z,31.36
2017-03-10T09:11:51.774Z,31.61
2017-03-10T09:12:51.524Z,31.44
2017-03-10T09:13:51.545Z,31.51
2017-03-10T09:14:51.565Z,31.88
2017-03-10T09:15:51.577Z,31.85
2017-03-10T09:16:51.571Z,31.68
2017-03-10T09:17:51.589Z,31.7
2017-03-10T09:18:51.559Z,31.68
2017-03-10T09:19:51.662Z,31.65
2017-03-10T09:20:51.236Z,31.69
2017-03-10T09:21:51.735Z,31.89
2017-03-10T09:22:51.264Z,31.1
2017-03-10T09:23:51.663Z,31.28
2017-03-10T09:24:51.298Z,31.35
2017-03-10T09:25:51.289Z,29.67
2017-03-10T09:26:51.946Z,28.52
2017-03-10T09:27:51.710Z,27.27
2017-03-10T09:28:51.770Z,26.51
2017-03-10T09:29:51.776Z,26.12
2017-03-10T09:30:51.724Z,25.73
2017-03-10T09:31:51.795Z,25.43
2017-03-10T09:32:51.762Z,25.39
2017-03-10T09:33:51.863Z,25.18
2017-03-10T09:34:51.742Z,25.09
2017-03-10T09:35:51.356Z,24.93
2017-03-10T09:36:51.757Z,24.87
2017-03-10T09:37:51.932Z,25.23
2017-03-10T09:38:51.480Z,25.47
2017-03-10T09:39:51.889Z,25.55
2017-03-10T09:40:51.866Z,25.58
2017-03-10T09:41:51.803Z,25.51
2017-03-10T09:42:51.845Z,25.24
2017-03-10T09:43:51.561Z,25.08
2017-03-10T09:44:51.867Z,25.03
2017-03-10T09:45:52.320Z,24.9
2017-03-10T09:46:51.828Z,24.83
2017-03-10T09:47:51.543Z,24.73
2017-03-10T09:48:51.908Z,24.69
2017-03-10T09:49:51.460Z,24.68
2017-03-10T09:50:51.964Z,24.52
2017-03-10T09:51:51.519Z,24.58
2017-03-10T09:52:51.529Z,24.6
2017-03-10T09:53:51.958Z,24.43
2017-03-10T09:54:51.943Z,24.47
2017-03-10T09:55:51.917Z,24.4
2017-03-10T09:56:51.512Z,24.3
2017-03-10T09:57:52.022Z,24.34
2017-03-10T09:58:51.927Z,24.18
2017-03-10T09:59:51.981Z,24.25
2017-03-10T10:00:51.156Z,24.21
2017-03-10T10:01:52.321Z,24.02
2017-03-10T10:02:52.015Z,24.03
2017-03-10T10:03:51.970Z,24
2017-03-10T10:04:51.870Z,23.97
2017-03-10T10:05:51.977Z,24.03
2017-03-10T10:06:52.310Z,23.95
2017-03-10T10:07:52.450Z,23.91
2017-03-10T10:08:51.999Z,23.73
2017-03-10T10:09:52.055Z,23.54
2017-03-10T10:10:52.058Z,23.72
2017-03-10T10:11:52.114Z,23.9
2017-03-10T10:12:51.726Z,23.97
2017-03-10T10:13:52.086Z,24.16
2017-03-10T10:14:52.145Z,24.39
2017-03-10T10:15:52.101Z,24.39
2017-03-10T10:16:52.051Z,24.22
2017-03-10T10:17:52.110Z,24.47
2017-03-10T10:18:51.760Z,24.78
2017-03-10T10:19:52.090Z,24.96
2017-03-10T10:20:52.132Z,24.93
2017-03-10T10:21:51.779Z,24.95
2017-03-10T10:22:52.126Z,24.85
2017-03-10T10:23:52.442Z,24.78
2017-03-10T10:24:51.741Z,24.6
2017-03-10T10:25:51.359Z,24.9
2017-03-10T10:26:52.162Z,24.85
2017-03-10T10:27:51.314Z,25.02
2017-03-10T10:28:52.157Z,25.08
2017-03-10T10:29:52.119Z,24.96
2017-03-10T10:30:52.271Z,24.99
2017-03-10T10:31:52.135Z,25.05
2017-03-10T10:32:52.184Z,24.78
2017-03-10T10:33:52.189Z,24.9
2017-03-10T10:34:51.762Z,25.08
2017-03-10T10:35:52.173Z,25.24
2017-03-10T10:36:52.157Z,25.24
2017-03-10T10:37:52.271Z,25.1
2017-03-10T10:38:52.263Z,25.17
2017-03-10T10:39:51.874Z,25.21
2017-03-10T10:40:52.985Z,25.08
2017-03-10T10:41:51.819Z,25.13
2017-03-10T10:42:52.295Z,25.2
2017-03-10T10:43:52.245Z,25.15
2017-03-10T10:44:52.199Z,25.13
2017-03-10T10:45:52.317Z,25.09
2017-03-10T10:46:52.213Z,25.05
2017-03-10T10:47:52.275Z,25.09
2017-03-10T10:48:52.287Z,25.14
2017-03-10T10:49:51.856Z,25.08
2017-03-10T10:50:52.586Z,24.85
2017-03-10T10:51:52.288Z,24.35
2017-03-10T10:52:51.955Z,24.47
2017-03-10T10:53:52.246Z,24.71
2017-03-10T10:54:51.958Z,24.62
2017-03-10T10:55:52.379Z,24.73
2017-03-10T10:56:52.324Z,25
2017-03-10T10:57:52.330Z,25.05
2017-03-10T10:58:51.941Z,25.02
2017-03-10T10:59:51.989Z,25.05
2017-03-10T11:00:51.554Z,24.88
2017-03-10T11:01:52.343Z,24.87
2017-03-10T11:02:52.364Z,24.88
2017-03-10T11:03:51.958Z,24.91
2017-03-10T11:04:52.324Z,24.87
2017-03-10T11:05:52.363Z,24.77
2017-03-10T11:06:52.382Z,24.77
2017-03-10T11:07:51.976Z,24.4
2017-03-10T11:08:52.341Z,24.22
2017-03-10T11:09:52.336Z,24.21
2017-03-10T11:10:52.466Z,24.27
2017-03-10T11:11:52.411Z,24.28
2017-03-10T11:12:52.350Z,24.24
2017-03-10T11:13:52.365Z,24.34
2017-03-10T11:14:52.369Z,24.45
2017-03-10T11:15:52.465Z,24.49
2017-03-10T11:16:52.425Z,24.71
2017-03-10T11:17:52.449Z,24.57
2017-03-10T11:18:52.443Z,24.53
2017-03-10T11:19:52.390Z,24.43
2017-03-10T11:20:52.060Z,24.37
2017-03-10T11:21:52.459Z,24.49
2017-03-10T11:22:52.133Z,24.24
2017-03-10T11:23:52.411Z,24.34
2017-03-10T11:24:52.467Z,24.55
2017-03-10T11:25:52.414Z,24.64
2017-03-10T11:26:52.470Z,24.2
2017-03-10T11:27:52.480Z,24.13
2017-03-10T11:28:52.439Z,24.45
2017-03-10T11:29:52.088Z,24.24
2017-03-10T11:30:52.438Z,24.18
2017-03-10T11:31:52.503Z,24.03
2017-03-10T11:32:52.445Z,24.22
2017-03-10T11:33:52.473Z,24.34
2017-03-10T11:34:52.509Z,24.55
2017-03-10T11:35:52.462Z,24.58
2017-03-10T11:36:52.618Z,24.52
2017-03-10T11:37:52.076Z,24.5
2017-03-10T11:38:52.538Z,24.71
2017-03-10T11:39:52.603Z,24.73
2017-03-10T11:40:52.138Z,24.84
2017-03-10T11:41:52.489Z,24.83
2017-03-10T11:42:52.556Z,24.71
2017-03-10T11:44:06.981Z,24.96
2017-03-10T11:44:52.226Z,25.05
2017-03-10T11:45:52.127Z,24.81
2017-03-10T11:46:52.565Z,24.83
2017-03-10T11:47:51.781Z,24.64
2017-03-10T11:48:52.580Z,24.84
2017-03-10T11:49:52.595Z,24.87
2017-03-10T11:50:52.538Z,24.77
2017-03-10T11:51:52.559Z,24.69
2017-03-10T11:52:52.662Z,24.64
2017-03-10T11:53:52.161Z,24.34
2017-03-10T11:54:52.614Z,24.31
2017-03-10T11:55:52.621Z,24.42
2017-03-10T11:56:52.570Z,24.52
2017-03-10T11:57:52.740Z,24.47
2017-03-10T11:58:52.589Z,24.5
2017-03-10T11:59:52.689Z,24.69
2017-03-10T12:00:54.396Z,24.24
2017-03-10T12:01:52.212Z,23.95
2017-03-10T12:02:52.604Z,23.69
2017-03-10T12:03:52.657Z,24.06
2017-03-10T12:04:52.761Z,23.72
2017-03-10T12:05:52.624Z,23.88
2017-03-10T12:06:52.328Z,23.95
2017-03-10T12:07:52.677Z,24.49
2017-03-10T12:08:52.235Z,24.64
2017-03-10T12:09:52.295Z,24.55
2017-03-10T12:10:52.739Z,24.55
2017-03-10T12:11:52.247Z,24.47
2017-03-10T12:12:52.706Z,24.53
2017-03-10T12:14:07.132Z,24.45
2017-03-10T12:14:52.712Z,24.25
2017-03-10T12:15:52.799Z,24.18
2017-03-10T12:16:52.274Z,23.66
2017-03-10T12:17:52.283Z,23.87
2017-03-10T12:18:52.734Z,24.08
2017-03-10T12:19:52.697Z,24.28
2017-03-10T12:20:52.744Z,24.34
2017-03-10T12:21:52.757Z,24.61
2017-03-10T12:22:52.711Z,24.4
2017-03-10T12:23:51.923Z,23.98
2017-03-10T12:24:52.767Z,23.72
2017-03-10T12:25:52.720Z,24.08
2017-03-10T12:26:52.727Z,23.97
2017-03-10T12:27:52.740Z,24.4
2017-03-10T12:28:52.779Z,24.6
2017-03-10T12:29:52.407Z,24.9
2017-03-10T12:30:52.792Z,24.93
2017-03-10T12:31:52.749Z,24.47
2017-03-10T12:32:52.815Z,24.31
2017-03-10T12:33:52.531Z,24.46
2017-03-10T12:34:52.824Z,24.34
2017-03-10T12:35:52.869Z,24.32
2017-03-10T12:36:52.814Z,24.53
2017-03-10T12:37:52.377Z,24.53
2017-03-10T12:38:52.828Z,24.6
2017-03-10T12:39:52.554Z,24.71
2017-03-10T12:40:52.790Z,24.76
2017-03-10T12:41:52.405Z,24.67
2017-03-10T12:42:52.534Z,24.73
2017-03-10T12:44:07.415Z,24.67
2017-03-10T12:44:52.993Z,24.55
2017-03-10T12:45:52.474Z,24.22
2017-03-10T12:46:52.910Z,24.42
2017-03-10T12:47:52.875Z,24.16
2017-03-10T12:48:52.932Z,24.47
2017-03-10T12:49:52.890Z,24.6
2017-03-10T12:50:52.843Z,24.43
2017-03-10T12:51:52.898Z,24.53
2017-03-10T12:52:54.261Z,24.46
2017-03-10T12:53:52.929Z,24.5
2017-03-10T12:54:52.944Z,24.4
2017-03-10T12:55:53.053Z,24.37
2017-03-10T12:56:52.950Z,24.45